createdAt,value
2016-10-24T07:14:50.339Z,420
2016-10-24T07:15:50.303Z,420
2016-10-24T07:16:50.283Z,435
2016-10-24T07:17:50.289Z,460
2016-10-24T07:18:50.258Z,490
2016-10-24T07:19:50.245Z,530
2016-10-24T07:20:50.231Z,645
2016-10-24T07:21:50.235Z,800
2016-10-24T07:22:50.220Z,870
2016-10-24T07:23:50.202Z,1065
2016-10-24T07:24:50.197Z,975
2016-10-24T07:25:50.199Z,770
2016-10-24T07:26:50.194Z,920
2016-10-24T07:27:50.156Z,930
2016-10-24T07:28:50.158Z,895
2016-10-24T07:29:50.146Z,860
2016-10-24T07:30:50.128Z,805
2016-10-24T07:31:50.102Z,745
2016-10-24T07:32:50.094Z,730
2016-10-24T07:33:50.142Z,690
2016-10-24T07:34:50.094Z,705
2016-10-24T07:35:50.097Z,725
2016-10-24T07:36:50.069Z,745
2016-10-24T07:37:50.062Z,785
2016-10-24T07:38:50.053Z,795
2016-10-24T07:39:50.032Z,755
2016-10-24T07:40:50.008Z,710
2016-10-24T07:41:50.020Z,710
2016-10-24T07:42:50.066Z,735
2016-10-24T07:43:50.365Z,745
2016-10-24T07:44:49.980Z,880
2016-10-24T07:45:49.972Z,1000
2016-10-24T07:46:49.963Z,1245
2016-10-24T07:47:49.952Z,1225
2016-10-24T07:48:49.944Z,945
2016-10-24T07:49:49.942Z,745
2016-10-24T07:50:49.919Z,1010
2016-10-24T07:51:49.912Z,965
2016-10-24T07:52:49.935Z,960
2016-10-24T07:53:49.887Z,1095
2016-10-24T07:54:49.880Z,1225
2016-10-24T07:55:49.864Z,1440
2016-10-24T07:56:49.856Z,1525
2016-10-24T07:57:49.879Z,1475
2016-10-24T07:58:49.863Z,1355
2016-10-24T07:59:49.840Z,1510
2016-10-24T08:00:49.814Z,1610
2016-10-24T08:01:49.814Z,1625
2016-10-24T08:02:49.785Z,1530
2016-10-24T08:03:49.800Z,1615
2016-10-24T08:04:49.793Z,1325
2016-10-24T08:05:49.781Z,1335
2016-10-24T08:06:49.760Z,1220
2016-10-24T08:07:49.767Z,1330
2016-10-24T08:08:49.751Z,1095
2016-10-24T08:09:49.724Z,1645
2016-10-24T08:10:49.711Z,1735
2016-10-24T08:11:49.710Z,1805
2016-10-24T08:12:49.674Z,1870
2016-10-24T08:13:49.696Z,1805
2016-10-24T08:14:49.676Z,1685
2016-10-24T08:15:49.701Z,1470
2016-10-24T08:16:49.642Z,1530
2016-10-24T08:17:49.626Z,1675
2016-10-24T08:18:49.650Z,1470
2016-10-24T08:19:49.621Z,1490
2016-10-24T08:20:49.641Z,1625
2016-10-24T08:21:49.616Z,1375
2016-10-24T08:22:49.559Z,1505
2016-10-24T08:23:49.573Z,1350
2016-10-24T08:24:49.572Z,1345
2016-10-24T08:25:49.551Z,1430
2016-10-24T08:26:49.540Z,1555
2016-10-24T08:27:49.544Z,1480
2016-10-24T08:28:49.548Z,1535
2016-10-24T08:29:49.517Z,1300
2016-10-24T08:30:49.495Z,1340
2016-10-24T08:31:49.493Z,1860
2016-10-24T08:32:49.488Z,1970
2016-10-24T08:33:49.477Z,1825
2016-10-24T08:34:49.472Z,1740
2016-10-24T08:35:49.430Z,1680
2016-10-24T08:36:49.433Z,1835
2016-10-24T08:37:49.395Z,1865
2016-10-24T08:38:49.432Z,1980
2016-10-24T08:39:49.412Z,2285
2016-10-24T08:40:49.402Z,2255
2016-10-24T08:41:49.442Z,2110
2016-10-24T08:42:49.396Z,2070
2016-10-24T08:43:49.358Z,1905
2016-10-24T08:44:49.350Z,1920
2016-10-24T08:45:49.332Z,1700
2016-10-24T08:46:49.358Z,1555
2016-10-24T08:47:49.335Z,1815
2016-10-24T08:48:49.320Z,1645
2016-10-24T08:49:49.306Z,1665
2016-10-24T08:50:49.277Z,2015
2016-10-24T08:51:49.295Z,1880
2016-10-24T08:52:49.294Z,2045
2016-10-24T08:53:49.258Z,2140
2016-10-24T08:54:49.256Z,2040
2016-10-24T08:55:49.252Z,1990
2016-10-24T08:56:49.251Z,2110
2016-10-24T08:57:49.210Z,2335
2016-10-24T08:58:49.236Z,2555
2016-10-24T08:59:49.185Z,2395
2016-10-24T09:00:49.189Z,1875
2016-10-24T09:01:49.189Z,1935
2016-10-24T09:02:49.169Z,1655
2016-10-24T09:03:49.144Z,1510
2016-10-24T09:04:49.159Z,1295
2016-10-24T09:05:49.128Z,1230
2016-10-24T09:06:49.129Z,1060
2016-10-24T09:07:49.130Z,1215
2016-10-24T09:08:49.099Z,1175
2016-10-24T09:09:49.126Z,1170
2016-10-24T09:10:49.052Z,1155
2016-10-24T09:11:49.070Z,1220
2016-10-24T09:12:49.067Z,1280
2016-10-24T09:13:49.050Z,1300
2016-10-24T09:14:49.033Z,1450
2016-10-24T09:15:49.048Z,1575
2016-10-24T09:16:49.039Z,1635
2016-10-24T09:17:49.015Z,1785
2016-10-24T09:18:48.993Z,1690
2016-10-24T09:19:48.966Z,1850
2016-10-24T09:20:48.984Z,1830
2016-10-24T09:21:48.940Z,1880
2016-10-24T09:22:48.959Z,1710
2016-10-24T09:23:48.941Z,1595
2016-10-24T09:24:49.329Z,1480
2016-10-24T09:25:48.924Z,1350
2016-10-24T09:26:48.908Z,1310
2016-10-24T09:27:48.880Z,1360
2016-10-24T09:28:48.903Z,1290
2016-10-24T09:29:48.910Z,1305
2016-10-24T09:30:49.042Z,1285
2016-10-24T09:31:48.855Z,1300
2016-10-24T09:32:48.829Z,1400
2016-10-24T09:33:48.824Z,1305
2016-10-24T09:34:48.839Z,1375
2016-10-24T09:35:48.824Z,1325
2016-10-24T09:36:48.793Z,1330
2016-10-24T09:37:48.780Z,1505
2016-10-24T09:38:48.765Z,1630
2016-10-24T09:39:48.747Z,1610
2016-10-24T09:40:48.757Z,1890
2016-10-24T09:41:48.775Z,2010
2016-10-24T09:42:48.724Z,1950
2016-10-24T09:43:48.712Z,1870
2016-10-24T09:44:48.708Z,1785
2016-10-24T09:45:48.677Z,1680
2016-10-24T09:46:48.664Z,1700
2016-10-24T09:47:48.657Z,1640
2016-10-24T09:48:48.661Z,1620
2016-10-24T09:49:48.649Z,1635
2016-10-24T09:50:48.653Z,1655
2016-10-24T09:51:48.646Z,1530
2016-10-24T09:52:48.615Z,1480
2016-10-24T09:53:48.612Z,1425
2016-10-24T09:54:48.589Z,1445
2016-10-24T09:55:48.608Z,1590
2016-10-24T09:56:48.546Z,1610
2016-10-24T09:57:48.557Z,1465
2016-10-24T09:58:48.560Z,1400
2016-10-24T09:59:48.520Z,1450
2016-10-24T10:00:48.571Z,1580
2016-10-24T10:01:48.525Z,1400
2016-10-24T10:02:48.491Z,1420
2016-10-24T10:03:48.472Z,1425
2016-10-24T10:04:48.476Z,1400
2016-10-24T10:05:48.484Z,1345
2016-10-24T10:06:48.462Z,1350
2016-10-24T10:07:48.445Z,1320
2016-10-24T10:08:48.440Z,1385
2016-10-24T10:09:48.430Z,1450
2016-10-24T10:10:48.403Z,1615
2016-10-24T10:11:48.392Z,1705
2016-10-24T10:12:48.379Z,1650
2016-10-24T10:13:48.380Z,1610
2016-10-24T10:14:48.405Z,1550
2016-10-24T10:15:48.340Z,1585
2016-10-24T10:16:48.329Z,1490
2016-10-24T10:17:48.328Z,1710
2016-10-24T10:18:48.360Z,1915
2016-10-24T10:19:48.310Z,1830
2016-10-24T10:20:48.301Z,1855
2016-10-24T10:21:48.317Z,1880
2016-10-24T10:22:48.310Z,1965
2016-10-24T10:23:48.270Z,2065
2016-10-24T10:24:48.565Z,2105
2016-10-24T10:25:48.290Z,2165
2016-10-24T10:26:48.206Z,2080
2016-10-24T10:27:48.216Z,2435
2016-10-24T10:28:48.251Z,2180
2016-10-24T10:29:48.191Z,2185
2016-10-24T10:30:48.204Z,2525
2016-10-24T10:31:48.152Z,2740
2016-10-24T10:32:48.185Z,1840
2016-10-24T10:33:48.168Z,1805
2016-10-24T10:34:48.147Z,2065
2016-10-24T10:35:48.155Z,2010
2016-10-24T10:36:48.156Z,1900
2016-10-24T10:37:48.116Z,1880
2016-10-24T10:38:48.099Z,2030
2016-10-24T10:39:48.078Z,1715
2016-10-24T10:40:48.063Z,1985
2016-10-24T10:41:48.065Z,1920
2016-10-24T10:42:48.064Z,1160
2016-10-24T10:43:48.049Z,1115
2016-10-24T10:44:48.011Z,1835
2016-10-24T10:45:48.001Z,1490
2016-10-24T10:46:48.007Z,1995
2016-10-24T10:47:47.969Z,2000
2016-10-24T10:48:48.018Z,1125
2016-10-24T10:49:48.274Z,1610
2016-10-24T10:50:47.962Z,1485
2016-10-24T10:51:47.951Z,1875
2016-10-24T10:52:48.586Z,1945
2016-10-24T10:53:47.919Z,2160
2016-10-24T10:54:47.926Z,2010
2016-10-24T10:55:47.986Z,2095
2016-10-24T10:56:47.904Z,1890
2016-10-24T10:57:47.868Z,1705
2016-10-24T10:58:47.882Z,1560
2016-10-24T10:59:47.867Z,1580
2016-10-24T11:00:47.833Z,1475
2016-10-24T11:01:47.829Z,1630
2016-10-24T11:02:47.811Z,1505
2016-10-24T11:03:47.806Z,1605
2016-10-24T11:04:47.789Z,1735
2016-10-24T11:05:47.773Z,1845
2016-10-24T11:06:47.778Z,1575
2016-10-24T11:07:47.799Z,1740
2016-10-24T11:08:47.764Z,1585
2016-10-24T11:09:47.728Z,1600
2016-10-24T11:10:47.706Z,1705
2016-10-24T11:11:47.694Z,1745
2016-10-24T11:12:47.757Z,1765
2016-10-24T11:13:47.721Z,1695
2016-10-24T11:14:47.661Z,1660
2016-10-24T11:15:47.662Z,1695
2016-10-24T11:16:47.667Z,1775
2016-10-24T11:17:47.650Z,1965
2016-10-24T11:18:47.608Z,1830
2016-10-24T11:19:47.610Z,1880
2016-10-24T11:20:47.613Z,1920
2016-10-24T11:21:47.649Z,1915
2016-10-24T11:22:47.627Z,1680
2016-10-24T11:23:47.585Z,1840
2016-10-24T11:24:47.553Z,1855
2016-10-24T11:25:47.577Z,1805
2016-10-24T11:26:47.524Z,1970
2016-10-24T11:27:47.571Z,2020
2016-10-24T11:28:47.540Z,1875
2016-10-24T11:29:47.502Z,1675
2016-10-24T11:30:47.502Z,1665
2016-10-24T11:31:47.511Z,1840
2016-10-24T11:32:47.474Z,2040
2016-10-24T11:33:47.459Z,1915
2016-10-24T11:34:47.466Z,1650
2016-10-24T11:35:47.431Z,1590
2016-10-24T11:36:47.462Z,1740
2016-10-24T11:37:47.419Z,1945
2016-10-24T11:38:47.422Z,2110
2016-10-24T11:39:47.401Z,2090
2016-10-24T11:40:47.430Z,2060
2016-10-24T11:41:47.416Z,2195
2016-10-24T11:42:47.364Z,2090
2016-10-24T11:43:47.379Z,1930
2016-10-24T11:44:47.368Z,1785
2016-10-24T11:45:47.349Z,1855
2016-10-24T11:46:47.358Z,1980
2016-10-24T11:47:47.330Z,1890
2016-10-24T11:48:47.317Z,1940
2016-10-24T11:49:47.332Z,1965
2016-10-24T11:50:47.303Z,2050
2016-10-24T11:51:47.278Z,1745
2016-10-24T11:52:47.271Z,1650
2016-10-24T11:53:47.290Z,1790
2016-10-24T11:54:47.256Z,1800
2016-10-24T11:55:47.256Z,1710
2016-10-24T11:56:47.234Z,1890
2016-10-24T11:57:47.244Z,1785
2016-10-24T11:58:47.207Z,1775
2016-10-24T11:59:47.199Z,1785
2016-10-24T12:00:47.226Z,1880
2016-10-24T12:01:47.167Z,1890
2016-10-24T12:02:47.179Z,2070
2016-10-24T12:03:47.178Z,2030
2016-10-24T12:04:47.183Z,1990
2016-10-24T12:05:47.174Z,1980
2016-10-24T12:06:47.136Z,2095
2016-10-24T12:07:47.135Z,2150
2016-10-24T12:08:47.118Z,2165
2016-10-24T12:09:47.115Z,2165
2016-10-24T12:10:47.086Z,2010
2016-10-24T12:11:47.088Z,1375
2016-10-24T12:12:47.082Z,1570
2016-10-24T12:13:47.373Z,1630
2016-10-24T12:14:47.067Z,1525
2016-10-24T12:15:47.044Z,1885
2016-10-24T12:16:47.021Z,1345
2016-10-24T12:17:47.031Z,1765
2016-10-24T12:18:46.979Z,1745
2016-10-24T12:19:46.996Z,1865
2016-10-24T12:20:46.991Z,2055
2016-10-24T12:21:46.969Z,1775
2016-10-24T12:22:46.961Z,1950
2016-10-24T12:23:46.937Z,2055
2016-10-24T12:24:46.964Z,2045
2016-10-24T12:25:46.931Z,2095
2016-10-24T12:26:46.951Z,2200
2016-10-24T12:27:46.948Z,1965
2016-10-24T12:28:46.954Z,1985
2016-10-24T12:29:46.898Z,1920
2016-10-24T12:30:46.884Z,2150
2016-10-24T12:31:46.880Z,2180
2016-10-24T12:32:46.872Z,1965
2016-10-24T12:33:46.849Z,1820
2016-10-24T12:34:46.857Z,1820
2016-10-24T12:35:46.862Z,1695
2016-10-24T12:36:46.806Z,1395
2016-10-24T12:37:46.818Z,1695
2016-10-24T12:38:46.816Z,1680
2016-10-24T12:39:46.806Z,1705
2016-10-24T12:40:46.828Z,1785
2016-10-24T12:41:46.760Z,1950
2016-10-24T12:42:46.754Z,1915
2016-10-24T12:43:46.771Z,1945
2016-10-24T12:44:46.743Z,1755
2016-10-24T12:45:46.745Z,1775
2016-10-24T12:46:46.748Z,1930
2016-10-24T12:47:46.703Z,1895
2016-10-24T12:48:46.686Z,1765
2016-10-24T12:49:46.685Z,1700
2016-10-24T12:50:46.681Z,1805
2016-10-24T12:51:46.665Z,1845
2016-10-24T12:52:46.634Z,2025
2016-10-24T12:53:46.641Z,1935
2016-10-24T12:54:46.962Z,1885
2016-10-24T12:55:46.648Z,1845
2016-10-24T12:56:46.611Z,1850
2016-10-24T12:57:46.617Z,1925
2016-10-24T12:58:46.601Z,1860
2016-10-24T12:59:46.577Z,1960
2016-10-24T13:00:46.620Z,1875
2016-10-24T13:01:46.589Z,1215
2016-10-24T13:02:46.544Z,1465
2016-10-24T13:03:46.571Z,1780
2016-10-24T13:04:46.550Z,1710
2016-10-24T13:05:46.559Z,1745
2016-10-24T13:06:46.518Z,1850
2016-10-24T13:07:46.511Z,1755
2016-10-24T13:08:46.530Z,1880
2016-10-24T13:09:46.481Z,1920
2016-10-24T13:10:46.470Z,2005
2016-10-24T13:11:46.482Z,1965
2016-10-24T13:12:46.435Z,1520
2016-10-24T13:13:46.451Z,1075
2016-10-24T13:14:46.493Z,1135
2016-10-24T13:15:46.463Z,1125
2016-10-24T13:16:46.454Z,1325
2016-10-24T13:17:46.395Z,1380
2016-10-24T13:18:46.398Z,1180
2016-10-24T13:19:46.387Z,1190
2016-10-24T13:20:46.413Z,1215
2016-10-24T13:21:46.421Z,1385
2016-10-24T13:22:46.358Z,1295
2016-10-24T13:23:46.343Z,1605
2016-10-24T13:24:46.342Z,1355
2016-10-24T13:25:46.349Z,1335
2016-10-24T13:26:46.302Z,1180
2016-10-24T13:27:46.289Z,920
2016-10-24T13:28:46.333Z,825
2016-10-24T13:29:46.362Z,815
2016-10-24T13:30:46.255Z,725
2016-10-24T13:31:46.272Z,735
2016-10-24T13:32:46.327Z,815
2016-10-24T13:33:46.242Z,910
2016-10-24T13:34:46.245Z,1050
2016-10-24T13:35:46.217Z,1395
2016-10-24T13:36:46.201Z,1390
2016-10-24T13:37:46.201Z,1965
2016-10-24T13:38:46.192Z,2225
2016-10-24T13:39:46.171Z,1980
2016-10-24T13:40:46.181Z,1390
2016-10-24T13:41:46.181Z,1405
2016-10-24T13:42:46.170Z,1975
2016-10-24T13:43:46.147Z,1795
2016-10-24T13:44:46.153Z,1890
2016-10-24T13:45:46.121Z,1715
2016-10-24T13:46:46.101Z,1595
2016-10-24T13:47:46.111Z,1610
2016-10-24T13:48:46.071Z,1660
2016-10-24T13:49:46.063Z,1630
2016-10-24T13:50:46.112Z,1420
2016-10-24T13:51:46.073Z,1385
2016-10-24T13:52:46.088Z,1480
2016-10-24T13:53:46.065Z,1460
2016-10-24T13:54:46.015Z,1320
2016-10-24T13:55:46.002Z,1305
2016-10-24T13:56:46.351Z,1415
2016-10-24T13:57:45.995Z,1395
2016-10-24T13:58:45.981Z,1440
2016-10-24T13:59:46.000Z,1485
2016-10-24T14:00:45.954Z,1305
2016-10-24T14:01:45.954Z,1195
2016-10-24T14:02:45.910Z,1295
2016-10-24T14:03:45.936Z,1200
2016-10-24T14:04:45.945Z,1175
2016-10-24T14:05:45.940Z,1095
2016-10-24T14:06:45.946Z,1090
2016-10-24T14:07:46.240Z,1005
2016-10-24T14:08:45.873Z,910
2016-10-24T14:09:46.185Z,925
2016-10-24T14:10:46.050Z,910
2016-10-24T14:11:45.875Z,875
2016-10-24T14:12:45.862Z,805
2016-10-24T14:13:45.806Z,815
2016-10-24T14:14:45.821Z,855
2016-10-24T14:15:45.861Z,910
2016-10-24T14:16:45.811Z,860
2016-10-24T14:17:45.784Z,805
2016-10-24T14:18:45.780Z,820
2016-10-24T14:19:45.792Z,790
2016-10-24T14:20:45.749Z,765
2016-10-24T14:21:45.807Z,725
2016-10-24T14:22:45.734Z,710
2016-10-24T14:23:45.740Z,695
2016-10-24T14:24:45.751Z,670
2016-10-24T14:25:45.730Z,665
2016-10-24T14:26:45.734Z,670
2016-10-24T14:27:45.718Z,655
2016-10-24T14:28:45.688Z,640
2016-10-24T14:29:45.691Z,665
2016-10-24T14:30:45.685Z,685
2016-10-24T14:31:45.683Z,695
2016-10-24T14:32:45.632Z,750
2016-10-24T14:33:45.632Z,785
2016-10-24T14:34:45.663Z,800
2016-10-24T14:35:45.612Z,830
2016-10-24T14:36:45.622Z,825
2016-10-24T14:37:45.578Z,865
2016-10-24T14:38:45.567Z,865
2016-10-24T14:39:45.569Z,860
2016-10-24T14:40:45.574Z,830
2016-10-24T14:41:45.565Z,850
2016-10-24T14:42:45.538Z,805
2016-10-24T14:43:45.506Z,780
2016-10-24T14:44:45.537Z,675
2016-10-24T14:45:45.515Z,595
2016-10-24T14:46:45.501Z,575
2016-10-24T14:47:45.475Z,565
2016-10-24T14:48:45.475Z,560
2016-10-24T14:49:45.449Z,545
2016-10-24T14:50:45.478Z,545
2016-10-24T14:51:45.424Z,540
2016-10-24T14:52:45.416Z,550
2016-10-24T14:53:45.400Z,530
2016-10-24T14:54:45.401Z,505
2016-10-24T14:55:45.394Z,500
2016-10-24T14:56:45.408Z,490
2016-10-24T14:57:45.368Z,490
2016-10-24T14:58:45.665Z,490
2016-10-24T14:59:45.351Z,450
2016-10-24T15:00:45.344Z,425
2016-10-24T15:01:45.317Z,405
2016-10-24T15:02:45.327Z,395
2016-10-24T15:03:45.287Z,390
2016-10-24T15:04:45.294Z,395
2016-10-24T15:05:45.288Z,395
2016-10-24T15:06:45.307Z,425
2016-10-24T15:07:45.261Z,475
2016-10-24T15:08:45.274Z,475
2016-10-24T15:09:45.253Z,490
2016-10-24T15:10:45.244Z,450
2016-10-24T15:11:45.513Z,415
2016-10-24T15:12:45.232Z,440
2016-10-24T15:13:45.232Z,465
2016-10-24T15:14:45.177Z,500
2016-10-24T15:15:45.179Z,505
2016-10-24T15:16:45.165Z,540
2016-10-24T15:17:45.159Z,525
2016-10-24T15:18:45.124Z,510
2016-10-24T15:19:45.143Z,490
2016-10-24T15:20:45.140Z,460
2016-10-24T15:21:45.093Z,420
2016-10-24T15:22:45.084Z,400
2016-10-24T15:23:45.106Z,400
2016-10-24T15:24:45.065Z,375
2016-10-24T15:25:45.070Z,355
2016-10-24T15:26:45.075Z,325
2016-10-24T15:27:45.047Z,310
2016-10-24T15:28:45.030Z,300
2016-10-24T15:29:45.034Z,290
2016-10-24T15:30:44.994Z,300
2016-10-24T15:31:45.000Z,300
2016-10-24T15:32:45.004Z,270
2016-10-24T15:33:44.979Z,250
2016-10-24T15:34:44.993Z,240
2016-10-24T15:35:44.975Z,225
2016-10-24T15:36:44.952Z,215
2016-10-24T15:37:44.935Z,205
2016-10-24T15:38:44.917Z,195
2016-10-24T15:39:44.913Z,190
2016-10-24T15:40:44.927Z,180
2016-10-24T15:41:44.883Z,175
2016-10-24T15:42:44.901Z,165
2016-10-24T15:43:44.929Z,155
2016-10-24T15:44:44.917Z,145
2016-10-24T15:45:44.876Z,140
2016-10-24T15:46:44.837Z,130
2016-10-24T15:47:44.881Z,125
2016-10-24T15:48:44.806Z,120
2016-10-24T15:49:44.808Z,115
2016-10-24T15:50:44.812Z,110
2016-10-24T15:51:44.771Z,105
2016-10-24T15:52:44.808Z,100
2016-10-24T15:53:45.094Z,95
2016-10-24T15:54:44.777Z,90
2016-10-24T15:55:44.736Z,85
2016-10-24T15:56:44.750Z,85
2016-10-24T15:57:44.720Z,80
2016-10-24T15:58:44.706Z,75
2016-10-24T15:59:44.721Z,70
2016-10-24T16:00:44.674Z,65
2016-10-24T16:01:44.693Z,60
2016-10-24T16:02:44.665Z,55
2016-10-24T16:03:44.658Z,50
2016-10-24T16:04:44.661Z,45
2016-10-24T16:05:44.627Z,40
2016-10-24T16:06:44.613Z,35
2016-10-24T16:07:44.619Z,30
2016-10-24T16:08:44.630Z,30
2016-10-24T16:09:44.583Z,25
2016-10-24T16:10:44.601Z,20
2016-10-24T16:11:44.902Z,20
2016-10-24T16:12:44.568Z,15
2016-10-24T16:13:44.575Z,15
2016-10-24T16:14:44.555Z,15
2016-10-24T16:15:44.540Z,10
2016-10-24T16:16:44.517Z,10
2016-10-24T16:17:44.506Z,10
2016-10-24T16:18:44.480Z,10
2016-10-24T16:19:44.460Z,5
2016-10-24T16:20:44.465Z,5
2016-10-24T16:21:44.460Z,5
2016-10-24T16:22:44.445Z,5
2016-10-24T16:23:44.440Z,0
2016-10-24T16:24:44.443Z,0
2016-10-24T16:25:44.384Z,0
2016-10-24T16:26:44.389Z,0
2016-10-24T16:27:44.703Z,0
2016-10-24T16:28:44.359Z,0
2016-10-24T16:29:44.348Z,0
2016-10-24T16:30:44.343Z,0
2016-10-24T16:31:44.322Z,0
2016-10-24T16:32:44.325Z,0
2016-10-24T16:33:44.322Z,0
2016-10-24T16:34:44.307Z,0
2016-10-24T16:35:44.321Z,0
2016-10-24T16:36:44.283Z,0
2016-10-24T16:37:44.274Z,0
2016-10-24T16:38:44.281Z,0
2016-10-24T16:39:44.249Z,0
2016-10-24T16:40:44.249Z,0
2016-10-24T16:41:44.250Z,0
2016-10-24T16:42:44.194Z,0
2016-10-24T16:43:44.201Z,0
2016-10-24T16:44:44.213Z,0
2016-10-24T16:45:44.182Z,0
2016-10-24T16:46:44.181Z,0
2016-10-24T16:47:44.187Z,0
2016-10-24T16:48:44.148Z,0
2016-10-24T16:49:44.147Z,0
2016-10-24T16:50:44.148Z,0
2016-10-24T16:51:44.146Z,0
2016-10-24T16:52:44.111Z,0
2016-10-24T16:53:44.350Z,0
2016-10-24T16:54:44.057Z,0
2016-10-24T16:55:44.094Z,0
2016-10-24T16:56:44.057Z,0
2016-10-24T16:57:44.070Z,0
2016-10-24T16:58:44.083Z,0
2016-10-24T16:59:44.035Z,0
2016-10-24T17:00:44.017Z,0
2016-10-24T17:01:44.336Z,0
2016-10-24T17:02:44.306Z,0
2016-10-24T17:03:44.012Z,0
2016-10-24T17:04:43.979Z,0
2016-10-24T17:05:43.949Z,0
2016-10-24T17:06:43.954Z,0
2016-10-24T17:07:43.927Z,0
2016-10-24T17:08:43.940Z,0
2016-10-24T17:09:43.928Z,0
2016-10-24T17:10:43.917Z,0
2016-10-24T17:11:43.930Z,0
2016-10-24T17:12:43.893Z,0
2016-10-24T17:13:43.849Z,0
2016-10-24T17:14:43.886Z,0
2016-10-24T17:15:43.873Z,0
2016-10-24T17:16:43.862Z,0
2016-10-24T17:17:43.840Z,0
2016-10-24T17:18:43.805Z,0
2016-10-24T17:19:43.828Z,0
2016-10-24T17:20:43.801Z,0
2016-10-24T17:21:43.783Z,0
2016-10-24T17:22:43.765Z,0
2016-10-24T17:23:43.771Z,0
2016-10-24T17:24:43.790Z,0
2016-10-24T17:25:43.775Z,0
2016-10-24T17:26:43.746Z,0
2016-10-24T17:27:43.742Z,0
2016-10-24T17:28:43.708Z,0
2016-10-24T17:29:43.700Z,0
2016-10-24T17:30:43.692Z,0
2016-10-24T17:31:43.679Z,0
2016-10-24T17:32:43.673Z,0
2016-10-24T17:33:43.662Z,0
2016-10-24T17:34:43.655Z,0
2016-10-24T17:35:43.662Z,0
2016-10-24T17:36:43.594Z,0
2016-10-24T17:37:43.611Z,0
2016-10-24T17:38:43.606Z,0
2016-10-24T17:39:43.622Z,0
2016-10-24T17:40:43.578Z,0
2016-10-24T17:41:43.559Z,0
2016-10-24T17:42:43.531Z,0
2016-10-24T17:43:43.552Z,0
2016-10-24T17:44:43.736Z,0
2016-10-24T17:45:43.521Z,0
2016-10-24T17:46:43.543Z,0
2016-10-24T17:47:43.686Z,0
2016-10-24T17:48:43.508Z,0
2016-10-24T17:49:43.462Z,0
2016-10-24T17:50:43.453Z,0
2016-10-24T17:51:43.476Z,0
2016-10-24T17:52:43.442Z,0
2016-10-24T17:53:43.425Z,0
2016-10-24T17:54:43.440Z,0
2016-10-24T17:55:43.395Z,0
2016-10-24T17:56:43.419Z,0
2016-10-24T17:57:43.393Z,0
2016-10-24T17:58:43.352Z,0
2016-10-24T17:59:43.354Z,0
2016-10-24T18:00:43.376Z,0
2016-10-24T18:01:43.311Z,0
2016-10-24T18:02:43.323Z,0
2016-10-24T18:03:43.332Z,0
2016-10-24T18:04:43.287Z,0
2016-10-24T18:05:43.323Z,0
2016-10-24T18:06:43.331Z,0
2016-10-24T18:07:43.299Z,0
2016-10-24T18:08:43.287Z,0
2016-10-24T18:09:43.232Z,0
2016-10-24T18:10:43.763Z,0
2016-10-24T18:11:43.239Z,0
2016-10-24T18:12:43.205Z,0
2016-10-24T18:13:43.234Z,0
2016-10-24T18:14:43.226Z,0
2016-10-24T18:15:43.224Z,0
2016-10-24T18:16:43.397Z,0
2016-10-24T18:17:43.183Z,0
2016-10-24T18:18:43.415Z,0
2016-10-24T18:19:43.147Z,0
2016-10-24T18:20:43.182Z,0
2016-10-24T18:21:43.142Z,0
2016-10-24T18:22:43.121Z,0
2016-10-24T18:23:43.120Z,0
2016-10-24T18:24:43.121Z,0
2016-10-24T18:25:43.065Z,0
2016-10-24T18:26:43.082Z,0
2016-10-24T18:27:43.099Z,0
2016-10-24T18:28:43.051Z,0
2016-10-24T18:29:43.059Z,0
2016-10-24T18:30:43.244Z,0
2016-10-24T18:31:43.055Z,0
2016-10-24T18:32:43.000Z,0
2016-10-24T18:33:42.979Z,0
2016-10-24T18:34:42.992Z,0
2016-10-24T18:35:43.154Z,0
2016-10-24T18:36:42.943Z,0
2016-10-24T18:37:43.236Z,0
2016-10-24T18:38:42.936Z,0
2016-10-24T18:39:42.945Z,0
2016-10-24T18:40:42.927Z,0
2016-10-24T18:41:42.935Z,0
2016-10-24T18:42:43.188Z,0
2016-10-24T18:43:42.886Z,0
2016-10-24T18:44:42.883Z,0
2016-10-24T18:45:42.850Z,0
2016-10-24T18:46:43.140Z,0
2016-10-24T18:47:42.860Z,0
2016-10-24T18:48:43.027Z,0
2016-10-24T18:49:42.789Z,0
2016-10-24T18:50:42.802Z,0
2016-10-24T18:51:42.796Z,0
2016-10-24T18:52:42.762Z,0
2016-10-24T18:53:42.769Z,0
2016-10-24T18:54:42.781Z,0
2016-10-24T18:55:42.797Z,0
2016-10-24T18:56:42.729Z,0
2016-10-24T18:57:42.719Z,0
2016-10-24T18:58:42.727Z,0
2016-10-24T18:59:42.707Z,0
2016-10-24T19:00:42.694Z,0
2016-10-24T19:01:42.681Z,0
2016-10-24T19:02:42.667Z,0
2016-10-24T19:03:42.668Z,0
2016-10-24T19:04:42.651Z,0
2016-10-24T19:05:42.662Z,0
2016-10-24T19:06:42.629Z,0
2016-10-24T19:07:42.601Z,0
2016-10-24T19:08:42.590Z,0
2016-10-24T19:09:42.582Z,0
2016-10-24T19:10:42.622Z,0
2016-10-24T19:11:42.557Z,0
2016-10-24T19:12:42.566Z,0
2016-10-24T19:13:42.550Z,0
2016-10-24T19:14:42.513Z,0
2016-10-24T19:15:42.542Z,0
2016-10-24T19:16:42.503Z,0
2016-10-24T19:17:42.501Z,0
2016-10-24T19:18:42.480Z,0
2016-10-24T19:19:42.508Z,0
2016-10-24T19:20:42.687Z,0
2016-10-24T19:21:42.460Z,0
2016-10-24T19:22:42.635Z,0
2016-10-24T19:23:42.416Z,0
2016-10-24T19:24:42.401Z,0
2016-10-24T19:25:42.406Z,0
2016-10-24T19:26:42.643Z,0
2016-10-24T19:27:42.403Z,0
2016-10-24T19:28:42.400Z,0
2016-10-24T19:29:42.379Z,0
2016-10-24T19:30:42.355Z,0
2016-10-24T19:31:42.360Z,0
2016-10-24T19:32:42.309Z,0
2016-10-24T19:33:42.338Z,0
2016-10-24T19:34:42.326Z,0
2016-10-24T19:35:42.298Z,0
2016-10-24T19:36:42.275Z,0
2016-10-24T19:37:42.276Z,0
2016-10-24T19:38:42.262Z,0
2016-10-24T19:39:42.248Z,0
2016-10-24T19:40:42.264Z,0
2016-10-24T19:41:42.222Z,0
2016-10-24T19:42:42.303Z,0
2016-10-24T19:43:42.219Z,0
2016-10-24T19:44:42.195Z,0
2016-10-24T19:45:42.175Z,0
2016-10-24T19:46:42.244Z,0
2016-10-24T19:47:42.177Z,0
2016-10-24T19:48:42.459Z,0
2016-10-24T19:49:42.158Z,0
2016-10-24T19:50:42.117Z,0
2016-10-24T19:51:42.142Z,0
2016-10-24T19:52:42.306Z,0
2016-10-24T19:53:42.111Z,0
2016-10-24T19:54:42.287Z,0
2016-10-24T19:55:42.319Z,0
2016-10-24T19:56:42.062Z,0
2016-10-24T19:57:42.041Z,0
2016-10-24T19:58:42.050Z,0
2016-10-24T19:59:42.025Z,0
2016-10-24T20:00:42.078Z,0
2016-10-24T20:01:42.020Z,0
2016-10-24T20:02:42.019Z,0
2016-10-24T20:03:41.959Z,0
2016-10-24T20:04:41.974Z,0
2016-10-24T20:05:41.979Z,0
2016-10-24T20:06:41.945Z,0
2016-10-24T20:07:41.956Z,0
2016-10-24T20:08:41.958Z,0
2016-10-24T20:09:41.924Z,0
2016-10-24T20:10:41.916Z,0
2016-10-24T20:11:41.915Z,0
2016-10-24T20:12:41.864Z,0
2016-10-24T20:13:42.090Z,0
2016-10-24T20:14:41.871Z,0
2016-10-24T20:15:41.850Z,0
2016-10-24T20:16:41.819Z,0
2016-10-24T20:17:41.798Z,0
2016-10-24T20:18:41.823Z,0
2016-10-24T20:19:41.793Z,0
2016-10-24T20:20:41.781Z,0
2016-10-24T20:21:41.754Z,0
2016-10-24T20:22:41.789Z,0
2016-10-24T20:23:41.808Z,0
2016-10-24T20:24:41.756Z,0
2016-10-24T20:25:41.945Z,0
2016-10-24T20:26:41.897Z,0
2016-10-24T20:27:41.971Z,0
2016-10-24T20:28:41.678Z,0
2016-10-24T20:29:41.712Z,0
2016-10-24T20:30:41.713Z,0
2016-10-24T20:31:41.651Z,0
2016-10-24T20:32:41.691Z,0
2016-10-24T20:33:41.955Z,0
2016-10-24T20:34:41.629Z,0
2016-10-24T20:35:41.613Z,0
2016-10-24T20:36:41.616Z,0
2016-10-24T20:37:41.608Z,0
2016-10-24T20:38:41.622Z,0
2016-10-24T20:39:41.579Z,0
2016-10-24T20:40:41.546Z,0
2016-10-24T20:41:41.537Z,0
2016-10-24T20:42:41.566Z,0
2016-10-24T20:43:41.540Z,0
2016-10-24T20:44:41.524Z,0
2016-10-24T20:45:41.502Z,0
2016-10-24T20:46:41.505Z,0
2016-10-24T20:47:41.501Z,0
2016-10-24T20:48:41.477Z,0
2016-10-24T20:49:41.485Z,0
2016-10-24T20:50:41.451Z,0
2016-10-24T20:51:41.434Z,0
2016-10-24T20:52:41.627Z,0
2016-10-24T20:53:41.427Z,0
2016-10-24T20:54:41.416Z,0
2016-10-24T20:55:41.428Z,0
2016-10-24T20:56:41.372Z,0
2016-10-24T20:57:41.571Z,0
2016-10-24T20:58:41.575Z,0
2016-10-24T20:59:41.557Z,0
2016-10-24T21:00:41.341Z,0
2016-10-24T21:01:41.337Z,0
2016-10-24T21:02:41.325Z,0
2016-10-24T21:03:41.291Z,0
2016-10-24T21:04:41.350Z,0
2016-10-24T21:05:41.319Z,0
2016-10-24T21:06:41.256Z,0
2016-10-24T21:07:41.272Z,0
2016-10-24T21:08:41.246Z,0